Latest Coastal Weather Observations for Mallacoota

IDV60701

Issued at 11:41 pm EST Tuesday 27 June 2017 (issued every 10 minutes, with the page automatically refreshed every 10 minutes)

About coastal observations | Map of coastal stations | Coastal observations for VIC | Marine services | Other Formats
Station Details ID: 084084 Name: MALLACOOTA Lat: -37.60 Lon: 149.73 Height: 22.0 m
Data from the previous 72 hours. | See also: Recent months at Mallacoota
Date/Time
EST
Temp
°C
Wind Pressure Rain since
9am
mm
Weather Cloud Vis
km
Sea
Height
m
Swell
Dir  Spd
kts
Gust
kts
hPa Trend Height
m
Period
s
Dir
27/11:30pm 6.2 NNW 5 6 1023.7 - 0.0 - - - - - - -
27/11:00pm 6.5 NNW 5 6 1023.8 - 0.0 - - - - - - -
27/10:30pm 7.2 NNW 5 7 1024.0 - 0.0 - - - - - - -
27/10:00pm 6.9 NNW 4 4 1024.0 - 0.0 - - - - - - -
27/09:30pm 7.4 NNW 4 5 1024.0 - 0.0 - - - - - - -
27/09:00pm 7.8 NW 5 6 1024.1 - 0.0 - - - - - - -
27/08:30pm 8.0 NNW 5 6 1024.3 - 0.0 - - - - - - -
27/08:00pm 8.1 NW 5 6 1024.3 - 0.0 - - - - - - -
27/07:30pm 8.5 NW 5 6 1024.5 - 0.0 - - - - - - -
27/07:00pm 8.0 NNW 5 6 1024.5 - 0.0 - - - - - - -
27/06:30pm 8.9 NNW 5 5 1024.5 - 0.0 - - - - - - -
27/06:00pm 9.4 NNW 5 7 1024.3 - 0.0 - - - - - - -
27/05:30pm 9.9 N 5 6 1024.1 - 0.0 - - - - - - -
27/05:00pm 10.6 N 5 7 1023.9 - 0.0 - - - - - - -
27/04:30pm 12.0 NNE 6 9 1023.7 - 0.0 - - - - - - -
27/04:00pm 12.9 NE 8 11 1023.5 - 0.0 - - - - - - -
27/03:30pm 13.4 E 5 8 1023.7 - 0.0 - - - - - - -
27/03:00pm 13.1 E 6 10 1023.8 - 0.0 - - - - - - -
27/02:30pm 13.5 E 5 7 1023.8 - 0.0 - - - - - - -
27/02:00pm 13.4 SE 4 5 1024.0 - 0.0 - - - - - - -
27/01:30pm 13.5 SE 4 6 1024.1 - 0.0 - - - - - - -
27/01:00pm 13.9 ESE 4 5 1024.6 - 0.0 - - - - - - -
27/12:30pm 13.9 ESE 5 5 1025.1 - 0.0 - - - - - - -
27/12:00pm 13.1 E 4 5 1025.4 - 0.0 - - - - - - -
27/11:30am 12.9 E 4 5 1025.9 - 0.0 - - - - - - -
27/11:00am 12.6 ENE 5 6 1026.3 - 0.0 - - - - - - -
27/10:30am 12.9 NNW 3 5 1026.8 - 0.0 - - - - - - -
27/10:00am 11.1 NNW 3 5 1027.0 - 0.0 - - - - - - -
27/09:30am 7.9 NW 3 4 1027.0 - 0.0 - - - - - - -
27/09:00am 7.2 NNW 4 5 1026.9 - 0.4 - - - - - - -
27/08:30am 8.2 NW 5 8 1026.7 - 0.4 - - - - - - -
27/08:00am 6.2 NW 6 9 1026.5 - 0.4 - - - - - - -
27/07:30am 5.7 WNW 6 8 1026.5 - 0.4 - - - - - - -
27/07:00am 5.7 NW 5 6 1026.5 - 0.4 - - - - - - -
27/06:30am 6.3 NW 4 5 1026.4 - 0.4 - - - - - - -
27/06:00am 7.1 NW 3 5 1026.2 - 0.4 - - - - - - -
27/05:30am 7.7 WNW 4 5 1026.0 - 0.4 - - - - - - -
27/05:00am 7.6 NW 2 5 1025.9 - 0.4 - - - - - - -
27/04:30am 7.6 NW 3 5 1025.8 - 0.4 - - - - - - -
27/04:00am 7.3 NW 4 6 1025.7 - 0.4 - - - - - - -
27/03:30am 7.0 NW 4 5 1025.6 - 0.4 - - - - - - -
27/03:00am 7.5 NW 4 6 1025.7 - 0.2 - - - - - - -
27/02:30am 6.9 NW 4 5 1025.8 - 0.2 - - - - - - -
27/02:00am 7.5 NW 5 7 1025.6 - 0.2 - - - - - - -
27/01:30am 7.8 NW 4 8 1025.3 - 0.2 - - - - - - -
27/01:00am 8.3 WNW 5 7 1025.3 - 0.2 - - - - - - -
27/12:30am 8.4 WNW 5 7 1025.4 - 0.2 - - - - - - -
27/12:00am 8.5 WNW 7 10 1025.5 - 0.2 - - - - - - -
 
Date/Time
EST
Temp
°C
Wind Pressure Rain since
9am
mm
Weather Cloud Vis
km
Sea
Height
m
Swell
Dir  Spd
kts
Gust
kts
hPa Trend Height
m
Period
s
Dir
26/11:30pm 8.6 WNW 6 9 1025.7 - 0.2 - - - - - - -
26/11:00pm 8.4 WNW 4 7 1025.8 - 0.2 - - - - - - -
26/10:30pm 8.8 W 6 10 1025.5 - 0.2 - - - - - - -
26/10:00pm 9.0 WNW 7 11 1025.6 - 0.2 - - - - - - -
26/09:30pm 9.0 W 5 9 1025.4 - 0.2 - - - - - - -
26/09:00pm 8.6 WNW 5 7 1025.2 - 0.2 - - - - - - -
26/08:30pm 9.3 WSW 4 6 1025.3 - 0.2 - - - - - - -
26/08:00pm 9.4 WNW 6 9 1025.2 - 0.2 - - - - - - -
26/07:30pm 9.5 W 6 9 1024.8 - 0.2 - - - - - - -
26/07:00pm 9.1 WNW 5 8 1024.3 - 0.2 - - - - - - -
26/06:30pm 9.2 WNW 5 7 1023.9 - 0.2 - - - - - - -
26/06:00pm 9.7 W 6 10 1023.5 - 0.0 - - - - - - -
26/05:30pm 10.4 WSW 8 16 1023.5 - 0.0 - - - - - - -
26/05:00pm 11.0 WSW 5 10 1023.2 - 0.0 - - - - - - -
26/04:30pm 11.2 W 6 10 1022.8 - 0.0 - - - - - - -
26/04:00pm 11.4 WSW 7 15 1022.6 - 0.0 - - - - - - -
26/03:30pm 11.7 WSW 9 17 1022.2 - 0.0 - - - - - - -
26/03:00pm 11.2 WSW 10 16 1022.1 - 0.0 - - - - - - -
26/02:30pm 12.2 WSW 9 16 1021.6 - 0.0 - - - - - - -
26/02:00pm 11.7 SW 10 17 1021.7 - 0.0 - - - - - - -
26/01:48pm 11.8 SW 11 25 1021.6 - 0.0 - - - - - - -
26/01:47pm 11.8 SW 11 25 1021.6 - 0.0 - - - - - - -
26/01:30pm 12.7 SW 7 12 1021.3 - 0.0 - - - - - - -
26/01:00pm 12.4 WSW 10 19 1021.3 - 0.0 - - - - - - -
26/12:30pm 12.1 WSW 11 18 1021.3 - 0.0 - - - - - - -
26/12:00pm 13.5 SW 11 18 1021.1 - 0.0 - - - - - - -
26/11:30am 12.9 SW 11 17 1021.3 - 0.0 - - - - - - -
26/11:00am 13.8 WSW 10 18 1021.1 - 0.0 - - - - - - -
26/10:30am 12.9 WSW 10 16 1021.2 - 0.0 - - - - - - -
26/10:00am 12.7 WSW 8 15 1020.9 - 0.0 - - - - - - -
26/09:30am 11.4 W 9 16 1020.6 - 0.0 - - - - - - -
26/09:00am 11.6 W 9 13 1020.1 - 0.0 - - - - - - -
26/08:30am 10.2 W 9 15 1019.8 - 0.0 - - - - - - -
26/08:00am 10.1 W 8 14 1019.3 - 0.0 - - - - - - -
26/07:30am 9.6 W 6 12 1018.8 - 0.0 - - - - - - -
26/07:00am 9.5 W 8 12 1018.5 - 0.0 - - - - - - -
26/06:30am 9.7 WNW 8 14 1018.1 - 0.0 - - - - - - -
26/06:00am 9.8 WNW 8 13 1017.5 - 0.0 - - - - - - -
26/05:30am 9.7 W 6 11 1017.2 - 0.0 - - - - - - -
26/05:00am 9.8 W 5 9 1017.0 - 0.0 - - - - - - -
26/04:30am 10.4 W 9 16 1016.8 - 0.0 - - - - - - -
26/04:00am 10.2 W 9 15 1016.5 - 0.0 - - - - - - -
26/03:30am 9.8 W 7 13 1016.4 - 0.0 - - - - - - -
26/03:00am 9.0 W 6 9 1016.0 - 0.0 - - - - - - -
26/02:30am 8.9 W 5 8 1016.2 - 0.0 - - - - - - -
26/02:00am 8.6 W 5 8 1016.2 - 0.0 - - - - - - -
26/01:30am 7.7 W 4 7 1015.9 - 0.0 - - - - - - -
26/01:00am 8.6 W 5 9 1015.5 - 0.0 - - - - - - -
26/12:30am 7.5 W 4 5 1015.7 - 0.0 - - - - - - -
26/12:00am 8.4 W 5 7 1015.7 - 0.0 - - - - - - -
 
Date/Time
EST
Temp
°C
Wind Pressure Rain since
9am
mm
Weather Cloud Vis
km
Sea
Height
m
Swell
Dir  Spd
kts
Gust
kts
hPa Trend Height
m
Period
s
Dir
25/11:30pm 7.9 WNW 6 9 1015.6 - 0.0 - - - - - - -
25/11:00pm 4.6 WNW 5 7 1015.6 - 0.0 - - - - - - -
25/10:30pm 5.9 NW 6 9 1015.4 - 0.0 - - - - - - -
25/10:00pm 5.1 NW 5 6 1015.5 - 0.0 - - - - - - -
25/09:30pm 5.2 NW 6 8 1015.4 - 0.0 - - - - - - -
25/09:00pm 5.4 NW 5 7 1015.1 - 0.0 - - - - - - -
25/08:30pm 5.8 NW 5 7 1015.0 - 0.0 - - - - - - -
25/08:00pm 6.4 NW 6 8 1014.9 - 0.0 - - - - - - -
25/07:30pm 6.8 WNW 6 8 1014.5 - 0.0 - - - - - - -
25/07:00pm 6.9 WNW 6 7 1014.4 - 0.0 - - - - - - -
25/06:30pm 6.6 WNW 6 8 1013.8 - 0.0 - - - - - - -
25/06:00pm 6.4 NW 4 5 1013.6 - 0.0 - - - - - - -
25/05:30pm 7.2 WNW 3 4 1013.4 - 0.0 - - - - - - -
25/05:00pm 7.9 NW 4 5 1013.1 - 0.0 - - - - - - -
25/04:30pm 8.9 N 4 5 1013.0 - 0.0 - - - - - - -
25/04:00pm 12.3 N 4 4 1013.2 - 0.0 - - - - - - -
25/03:30pm 13.7 CALM 0 4 1013.3 - 0.0 - - - - - - -
25/03:00pm 14.0 WNW 5 9 1013.5 - 0.0 - - - - - - -
25/02:30pm 13.6 W 6 9 1013.6 - 0.0 - - - - - - -
25/02:00pm 13.3 W 8 13 1013.7 - 0.0 - - - - - - -
25/01:30pm 13.3 W 7 12 1013.9 - 0.0 - - - - - - -
25/01:00pm 12.8 WSW 7 10 1014.2 - 0.0 - - - - - - -
25/12:30pm 12.5 NW 7 10 1014.6 - 0.0 - - - - - - -
25/12:00pm 11.9 WNW 8 13 1015.2 - 0.0 - - - - - - -
25/11:30am 12.1 NNW 5 9 1015.8 - 0.0 - - - - - - -
25/11:00am 12.2 NW 5 7 1016.4 - 0.0 - - - - - - -
25/10:30am 11.1 W 4 7 1017.0 - 0.0 - - - - - - -
25/10:00am 9.9 WNW 5 6 1017.1 - 0.0 - - - - - - -
25/09:30am 9.2 WNW 4 6 1017.1 - 0.0 - - - - - - -
25/09:00am 7.5 WNW 5 7 1017.1 - 0.4 - - - - - - -
25/08:30am 5.8 W 7 9 1016.9 - 0.4 - - - - - - -
25/08:00am 3.8 WNW 5 9 1016.8 - 0.4 - - - - - - -
25/07:30am 3.1 WNW 5 8 1016.6 - 0.4 - - - - - - -
25/07:00am 3.2 NW 5 8 1016.3 - 0.4 - - - - - - -
25/06:30am 3.9 W 5 7 1016.0 - 0.4 - - - - - - -
25/06:00am 3.9 WNW 5 8 1015.8 - 0.4 - - - - - - -
25/05:30am 4.1 WNW 6 8 1015.7 - 0.4 - - - - - - -
25/05:00am 4.4 WNW 6 8 1015.4 - 0.4 - - - - - - -
25/04:30am 4.6 WNW 6 8 1015.5 - 0.4 - - - - - - -
25/04:00am 5.0 WNW 6 8 1015.7 - 0.4 - - - - - - -
25/03:30am 5.2 WNW 6 8 1015.8 - 0.4 - - - - - - -
25/03:00am 5.2 WNW 6 8 1016.1 - 0.4 - - - - - - -
25/02:30am 5.4 WNW 6 9 1016.3 - 0.4 - - - - - - -
25/02:00am 5.8 WNW 6 8 1016.3 - 0.4 - - - - - - -
25/01:30am 6.0 WNW 5 8 1016.1 - 0.4 - - - - - - -
25/01:00am 6.5 WNW 6 9 1016.3 - 0.4 - - - - - - -
25/12:30am 6.4 NW 5 7 1016.5 - 0.4 - - - - - - -
25/12:00am 6.6 WNW 6 9 1016.6 - 0.4 - - - - - - -

Other Formats:

Comma delimited format used in spreadsheet applications
http://www.bom.gov.au/fwo/IDV60701/IDV60701.94935.axf

JavaScript Object Notation format (JSON) in row-major order
http://www.bom.gov.au/fwo/IDV60701/IDV60701.94935.json